sensor_id;sensor_type;location;lat;lon;timestamp;pressure;altitude;pressure_sealevel;temperature;humidity
16821;BME280;8527;49.740;6.604;2024-01-27T00:03:20;101658.59;;;0.84;100.00
16821;BME280;8527;49.740;6.604;2024-01-27T00:08:19;101665.91;;;0.75;100.00
16821;BME280;8527;49.740;6.604;2024-01-27T00:13:20;101665.75;;;0.79;100.00
16821;BME280;8527;49.740;6.604;2024-01-27T00:18:20;101668.09;;;0.63;100.00
16821;BME280;8527;49.740;6.604;2024-01-27T00:23:19;101668.53;;;0.51;100.00
16821;BME280;8527;49.740;6.604;2024-01-27T00:28:20;101666.16;;;0.43;100.00
16821;BME280;8527;49.740;6.604;2024-01-27T00:33:21;101669.41;;;0.50;100.00
16821;BME280;8527;49.740;6.604;2024-01-27T00:38:20;101671.03;;;0.54;100.00
16821;BME280;8527;49.740;6.604;2024-01-27T00:43:22;101679.81;;;0.51;100.00
16821;BME280;8527;49.740;6.604;2024-01-27T00:48:20;101675.72;;;0.44;100.00
16821;BME280;8527;49.740;6.604;2024-01-27T00:53:18;101682.03;;;0.38;100.00
16821;BME280;8527;49.740;6.604;2024-01-27T00:58:16;101679.72;;;0.29;100.00
16821;BME280;8527;49.740;6.604;2024-01-27T01:03:23;101693.88;;;0.22;100.00
16821;BME280;8527;49.740;6.604;2024-01-27T01:08:28;101695.09;;;0.11;100.00
16821;BME280;8527;49.740;6.604;2024-01-27T01:13:28;101700.28;;;0.13;100.00
16821;BME280;8527;49.740;6.604;2024-01-27T01:18:32;101719.47;;;0.12;100.00
16821;BME280;8527;49.740;6.604;2024-01-27T01:23:30;101710.47;;;0.21;100.00
16821;BME280;8527;49.740;6.604;2024-01-27T01:28:32;101727.78;;;0.23;100.00
16821;BME280;8527;49.740;6.604;2024-01-27T01:33:36;101721.66;;;0.24;100.00
16821;BME280;8527;49.740;6.604;2024-01-27T01:38:34;101730.38;;;0.23;100.00
16821;BME280;8527;49.740;6.604;2024-01-27T01:43:32;101743.78;;;0.12;100.00
16821;BME280;8527;49.740;6.604;2024-01-27T01:48:36;101748.75;;;-0.07;100.00
16821;BME280;8527;49.740;6.604;2024-01-27T01:53:38;101752.91;;;-0.01;100.00
16821;BME280;8527;49.740;6.604;2024-01-27T01:58:36;101745.84;;;0.03;100.00
16821;BME280;8527;49.740;6.604;2024-01-27T02:03:37;101752.38;;;-0.11;100.00
16821;BME280;8527;49.740;6.604;2024-01-27T02:08:38;101743.38;;;-0.02;100.00
16821;BME280;8527;49.740;6.604;2024-01-27T02:13:41;101729.44;;;-0.01;100.00
16821;BME280;8527;49.740;6.604;2024-01-27T02:18:45;101733.59;;;-0.22;100.00
16821;BME280;8527;49.740;6.604;2024-01-27T02:23:47;101725.38;;;-0.37;100.00
16821;BME280;8527;49.740;6.604;2024-01-27T02:28:48;101718.03;;;-0.24;100.00
16821;BME280;8527;49.740;6.604;2024-01-27T02:33:46;101715.44;;;-0.25;100.00
16821;BME280;8527;49.740;6.604;2024-01-27T02:38:45;101721.81;;;-0.34;100.00
16821;BME280;8527;49.740;6.604;2024-01-27T02:43:43;101722.72;;;-0.35;100.00
16821;BME280;8527;49.740;6.604;2024-01-27T02:48:47;101724.94;;;-0.23;100.00
16821;BME280;8527;49.740;6.604;2024-01-27T02:53:48;101740.19;;;-0.37;100.00
16821;BME280;8527;49.740;6.604;2024-01-27T02:58:46;101725.78;;;-0.51;100.00
16821;BME280;8527;49.740;6.604;2024-01-27T03:03:48;101732.09;;;-0.58;100.00
16821;BME280;8527;49.740;6.604;2024-01-27T03:08:49;101746.84;;;-0.57;100.00
16821;BME280;8527;49.740;6.604;2024-01-27T03:13:48;101757.25;;;-0.55;100.00
16821;BME280;8527;49.740;6.604;2024-01-27T03:18:49;101763.41;;;-0.60;100.00
16821;BME280;8527;49.740;6.604;2024-01-27T03:23:47;101760.66;;;-0.53;100.00
16821;BME280;8527;49.740;6.604;2024-01-27T03:28:46;101753.78;;;-0.58;100.00
16821;BME280;8527;49.740;6.604;2024-01-27T03:33:53;101758.28;;;-0.61;100.00
16821;BME280;8527;49.740;6.604;2024-01-27T03:38:57;101751.16;;;-0.56;100.00
16821;BME280;8527;49.740;6.604;2024-01-27T03:43:55;101743.47;;;-0.61;100.00
16821;BME280;8527;49.740;6.604;2024-01-27T03:48:56;101753.53;;;-0.48;100.00
16821;BME280;8527;49.740;6.604;2024-01-27T03:53:54;101757.13;;;-0.52;100.00
16821;BME280;8527;49.740;6.604;2024-01-27T03:58:53;101765.00;;;-0.84;100.00
16821;BME280;8527;49.740;6.604;2024-01-27T04:03:51;101760.25;;;-0.69;100.00
16821;BME280;8527;49.740;6.604;2024-01-27T04:08:52;101761.63;;;-0.58;100.00
16821;BME280;8527;49.740;6.604;2024-01-27T04:13:50;101760.69;;;-0.55;100.00
16821;BME280;8527;49.740;6.604;2024-01-27T04:18:48;101770.84;;;-0.46;100.00
16821;BME280;8527;49.740;6.604;2024-01-27T04:23:47;101756.00;;;-0.44;100.00
16821;BME280;8527;49.740;6.604;2024-01-27T04:28:48;101767.13;;;-0.38;100.00
16821;BME280;8527;49.740;6.604;2024-01-27T04:33:47;101774.75;;;-0.61;100.00
16821;BME280;8527;49.740;6.604;2024-01-27T04:38:45;101765.84;;;-0.53;100.00
16821;BME280;8527;49.740;6.604;2024-01-27T04:43:49;101764.03;;;-0.50;100.00
16821;BME280;8527;49.740;6.604;2024-01-27T04:48:48;101770.69;;;-0.41;100.00
16821;BME280;8527;49.740;6.604;2024-01-27T04:53:46;101775.31;;;-0.51;100.00
16821;BME280;8527;49.740;6.604;2024-01-27T04:58:45;101770.31;;;-0.57;100.00
16821;BME280;8527;49.740;6.604;2024-01-27T05:03:49;101783.84;;;-0.44;100.00
16821;BME280;8527;49.740;6.604;2024-01-27T05:08:50;101777.06;;;-0.50;100.00
16821;BME280;8527;49.740;6.604;2024-01-27T05:13:50;101780.16;;;-0.38;100.00
16821;BME280;8527;49.740;6.604;2024-01-27T05:18:51;101789.09;;;-0.46;100.00
16821;BME280;8527;49.740;6.604;2024-01-27T05:23:49;101777.84;;;-0.48;100.00
16821;BME280;8527;49.740;6.604;2024-01-27T05:28:48;101788.28;;;-0.48;100.00
16821;BME280;8527;49.740;6.604;2024-01-27T05:33:51;101781.28;;;-0.46;100.00
16821;BME280;8527;49.740;6.604;2024-01-27T05:38:50;101783.56;;;-0.65;100.00
16821;BME280;8527;49.740;6.604;2024-01-27T05:43:55;101797.59;;;-0.69;100.00
16821;BME280;8527;49.740;6.604;2024-01-27T05:48:57;101793.81;;;-0.59;100.00
16821;BME280;8527;49.740;6.604;2024-01-27T05:53:58;101792.56;;;-0.75;100.00
16821;BME280;8527;49.740;6.604;2024-01-27T05:58:59;101792.94;;;-0.89;100.00
16821;BME280;8527;49.740;6.604;2024-01-27T06:04:00;101794.84;;;-0.96;100.00
16821;BME280;8527;49.740;6.604;2024-01-27T06:08:59;101790.41;;;-0.92;100.00
16821;BME280;8527;49.740;6.604;2024-01-27T06:13:59;101795.34;;;-0.81;100.00
16821;BME280;8527;49.740;6.604;2024-01-27T06:19:00;101785.63;;;-0.76;100.00
16821;BME280;8527;49.740;6.604;2024-01-27T06:24:01;101788.47;;;-0.84;100.00
16821;BME280;8527;49.740;6.604;2024-01-27T06:28:59;101796.88;;;-0.74;100.00
16821;BME280;8527;49.740;6.604;2024-01-27T06:34:08;101801.06;;;-0.70;100.00
16821;BME280;8527;49.740;6.604;2024-01-27T06:39:06;101810.78;;;-0.75;100.00
16821;BME280;8527;49.740;6.604;2024-01-27T06:44:09;101808.88;;;-0.68;100.00
16821;BME280;8527;49.740;6.604;2024-01-27T06:49:12;101815.16;;;-0.76;100.00
16821;BME280;8527;49.740;6.604;2024-01-27T06:54:11;101807.06;;;-0.66;100.00
16821;BME280;8527;49.740;6.604;2024-01-27T06:59:09;101816.03;;;-0.77;100.00
16821;BME280;8527;49.740;6.604;2024-01-27T07:04:10;101828.56;;;-0.90;100.00
16821;BME280;8527;49.740;6.604;2024-01-27T07:09:09;101836.88;;;-1.08;100.00
16821;BME280;8527;49.740;6.604;2024-01-27T07:14:10;101829.94;;;-1.09;100.00
16821;BME280;8527;49.740;6.604;2024-01-27T07:19:11;101832.16;;;-0.94;100.00
16821;BME280;8527;49.740;6.604;2024-01-27T07:24:14;101823.56;;;-0.97;100.00
16821;BME280;8527;49.740;6.604;2024-01-27T07:29:13;101829.72;;;-1.00;100.00
16821;BME280;8527;49.740;6.604;2024-01-27T07:34:14;101827.47;;;-1.14;100.00
16821;BME280;8527;49.740;6.604;2024-01-27T07:39:13;101832.66;;;-1.13;100.00
16821;BME280;8527;49.740;6.604;2024-01-27T07:44:13;101843.06;;;-1.13;100.00
16821;BME280;8527;49.740;6.604;2024-01-27T07:49:14;101848.69;;;-1.28;100.00
16821;BME280;8527;49.740;6.604;2024-01-27T07:54:13;101838.53;;;-1.06;100.00
16821;BME280;8527;49.740;6.604;2024-01-27T07:59:12;101867.31;;;-1.10;100.00
16821;BME280;8527;49.740;6.604;2024-01-27T08:04:14;101868.00;;;-1.04;100.00
16821;BME280;8527;49.740;6.604;2024-01-27T08:09:13;101878.44;;;-1.04;100.00
16821;BME280;8527;49.740;6.604;2024-01-27T08:14:12;101865.25;;;-0.97;100.00
16821;BME280;8527;49.740;6.604;2024-01-27T08:19:10;101871.47;;;-1.03;100.00
16821;BME280;8527;49.740;6.604;2024-01-27T08:24:11;101862.56;;;-0.94;100.00
16821;BME280;8527;49.740;6.604;2024-01-27T08:29:10;101864.16;;;-0.89;100.00
16821;BME280;8527;49.740;6.604;2024-01-27T08:34:08;101859.59;;;-0.80;100.00
16821;BME280;8527;49.740;6.604;2024-01-27T08:39:07;101853.25;;;-1.03;100.00
16821;BME280;8527;49.740;6.604;2024-01-27T08:44:10;101859.28;;;-1.03;100.00
16821;BME280;8527;49.740;6.604;2024-01-27T08:49:08;101838.09;;;-0.89;100.00
16821;BME280;8527;49.740;6.604;2024-01-27T08:54:07;101853.13;;;-0.98;100.00
16821;BME280;8527;49.740;6.604;2024-01-27T08:59:14;101846.94;;;-0.94;100.00
16821;BME280;8527;49.740;6.604;2024-01-27T09:04:12;101856.44;;;-0.60;100.00
16821;BME280;8527;49.740;6.604;2024-01-27T09:09:16;101869.94;;;-0.47;100.00
16821;BME280;8527;49.740;6.604;2024-01-27T09:14:17;101863.84;;;-0.46;100.00
16821;BME280;8527;49.740;6.604;2024-01-27T09:19:15;101855.66;;;-0.95;100.00
16821;BME280;8527;49.740;6.604;2024-01-27T09:24:14;101854.91;;;-0.37;100.00
16821;BME280;8527;49.740;6.604;2024-01-27T09:29:13;101852.16;;;-0.33;100.00
16821;BME280;8527;49.740;6.604;2024-01-27T09:34:16;101849.91;;;-0.15;100.00
16821;BME280;8527;49.740;6.604;2024-01-27T09:39:14;101845.53;;;-0.15;100.00
16821;BME280;8527;49.740;6.604;2024-01-27T09:44:14;101852.63;;;-0.18;100.00
16821;BME280;8527;49.740;6.604;2024-01-27T09:49:22;101847.44;;;-0.20;100.00
16821;BME280;8527;49.740;6.604;2024-01-27T09:54:22;101847.31;;;0.13;100.00
16821;BME280;8527;49.740;6.604;2024-01-27T09:59:21;101842.00;;;0.15;100.00
16821;BME280;8527;49.740;6.604;2024-01-27T10:04:27;101839.63;;;0.09;100.00
16821;BME280;8527;49.740;6.604;2024-01-27T10:09:26;101847.63;;;0.03;100.00
16821;BME280;8527;49.740;6.604;2024-01-27T10:14:24;101860.41;;;0.10;100.00
16821;BME280;8527;49.740;6.604;2024-01-27T10:19:26;101855.72;;;0.22;100.00
16821;BME280;8527;49.740;6.604;2024-01-27T10:24:28;101868.63;;;0.26;100.00
16821;BME280;8527;49.740;6.604;2024-01-27T10:29:26;101863.22;;;0.60;100.00
16821;BME280;8527;49.740;6.604;2024-01-27T10:34:29;101867.69;;;0.29;100.00
16821;BME280;8527;49.740;6.604;2024-01-27T10:39:27;101840.94;;;0.49;100.00
16821;BME280;8527;49.740;6.604;2024-01-27T10:44:27;101842.00;;;0.69;100.00
16821;BME280;8527;49.740;6.604;2024-01-27T10:49:37;101845.94;;;0.55;100.00
16821;BME280;8527;49.740;6.604;2024-01-27T10:54:36;101839.47;;;0.13;100.00
16821;BME280;8527;49.740;6.604;2024-01-27T10:59:38;101842.69;;;-0.07;100.00
16821;BME280;8527;49.740;6.604;2024-01-27T11:04:43;101822.00;;;0.16;100.00
16821;BME280;8527;49.740;6.604;2024-01-27T11:09:42;101822.66;;;0.49;100.00
16821;BME280;8527;49.740;6.604;2024-01-27T11:14:41;101824.53;;;0.44;100.00
16821;BME280;8527;49.740;6.604;2024-01-27T11:19:45;101801.44;;;0.59;100.00
16821;BME280;8527;49.740;6.604;2024-01-27T11:24:45;101793.28;;;0.93;100.00
16821;BME280;8527;49.740;6.604;2024-01-27T11:29:47;101783.75;;;1.16;100.00
16821;BME280;8527;49.740;6.604;2024-01-27T11:34:49;101782.84;;;1.17;100.00
16821;BME280;8527;49.740;6.604;2024-01-27T11:39:47;101778.78;;;1.78;100.00
16821;BME280;8527;49.740;6.604;2024-01-27T11:44:45;101769.72;;;2.30;100.00
16821;BME280;8527;49.740;6.604;2024-01-27T11:49:53;101770.69;;;2.28;100.00
16821;BME280;8527;49.740;6.604;2024-01-27T11:54:56;101768.34;;;2.21;100.00
16821;BME280;8527;49.740;6.604;2024-01-27T11:59:55;101774.13;;;2.07;100.00
16821;BME280;8527;49.740;6.604;2024-01-27T12:04:56;101777.63;;;2.29;100.00
16821;BME280;8527;49.740;6.604;2024-01-27T12:09:54;101765.13;;;2.35;100.00
16821;BME280;8527;49.740;6.604;2024-01-27T12:14:53;101773.97;;;2.33;100.00
16821;BME280;8527;49.740;6.604;2024-01-27T12:19:52;101770.66;;;2.29;100.00
16821;BME280;8527;49.740;6.604;2024-01-27T12:24:54;101783.00;;;2.46;100.00
16821;BME280;8527;49.740;6.604;2024-01-27T12:29:56;101777.09;;;2.83;100.00
16821;BME280;8527;49.740;6.604;2024-01-27T12:34:57;101768.00;;;2.71;100.00
16821;BME280;8527;49.740;6.604;2024-01-27T12:39:59;101770.34;;;2.77;100.00
16821;BME280;8527;49.740;6.604;2024-01-27T12:44:58;101766.78;;;2.99;99.13
16821;BME280;8527;49.740;6.604;2024-01-27T12:49:56;101752.19;;;3.12;97.04
16821;BME280;8527;49.740;6.604;2024-01-27T12:54:55;101740.31;;;3.24;94.21
16821;BME280;8527;49.740;6.604;2024-01-27T12:59:56;101732.69;;;3.37;93.17
16821;BME280;8527;49.740;6.604;2024-01-27T13:04:54;101716.38;;;3.49;91.18
16821;BME280;8527;49.740;6.604;2024-01-27T13:09:52;101713.81;;;3.67;90.61
16821;BME280;8527;49.740;6.604;2024-01-27T13:14:51;101711.03;;;3.88;90.55
16821;BME280;8527;49.740;6.604;2024-01-27T13:19:54;101713.28;;;3.96;87.68
16821;BME280;8527;49.740;6.604;2024-01-27T13:24:53;101706.19;;;4.15;87.37
16821;BME280;8527;49.740;6.604;2024-01-27T13:29:55;101698.38;;;4.31;86.63
16821;BME280;8527;49.740;6.604;2024-01-27T13:34:56;101702.06;;;4.45;85.85
16821;BME280;8527;49.740;6.604;2024-01-27T13:39:55;101703.13;;;4.58;84.00
16821;BME280;8527;49.740;6.604;2024-01-27T13:44:55;101694.31;;;4.59;84.69
16821;BME280;8527;49.740;6.604;2024-01-27T13:49:56;101696.97;;;4.75;85.02
16821;BME280;8527;49.740;6.604;2024-01-27T13:54:56;101682.13;;;4.74;89.19
16821;BME280;8527;49.740;6.604;2024-01-27T13:59:54;101681.16;;;4.59;91.41
16821;BME280;8527;49.740;6.604;2024-01-27T14:04:55;101668.72;;;4.45;92.90
16821;BME280;8527;49.740;6.604;2024-01-27T14:09:54;101664.81;;;4.36;94.17
16821;BME280;8527;49.740;6.604;2024-01-27T14:14:53;101664.06;;;4.34;94.62
16821;BME280;8527;49.740;6.604;2024-01-27T14:19:51;101655.06;;;4.39;94.71
16821;BME280;8527;49.740;6.604;2024-01-27T14:24:52;101652.91;;;4.29;95.68
16821;BME280;8527;49.740;6.604;2024-01-27T14:29:53;101656.88;;;4.38;96.36
16821;BME280;8527;49.740;6.604;2024-01-27T14:34:54;101652.44;;;4.39;95.83
16821;BME280;8527;49.740;6.604;2024-01-27T14:39:55;101643.03;;;4.34;95.40
16821;BME280;8527;49.740;6.604;2024-01-27T14:44:54;101645.72;;;4.33;95.75
16821;BME280;8527;49.740;6.604;2024-01-27T14:49:52;101647.75;;;4.28;94.52
16821;BME280;8527;49.740;6.604;2024-01-27T14:54:50;101649.63;;;4.59;91.34
16821;BME280;8527;49.740;6.604;2024-01-27T14:59:51;101650.81;;;4.70;86.39
16821;BME280;8527;49.740;6.604;2024-01-27T15:04:50;101644.69;;;4.69;85.98
16821;BME280;8527;49.740;6.604;2024-01-27T15:09:48;101651.81;;;4.67;85.50
16821;BME280;8527;49.740;6.604;2024-01-27T15:14:46;101646.41;;;4.70;85.81
16821;BME280;8527;49.740;6.604;2024-01-27T15:19:48;101643.69;;;4.72;86.04
16821;BME280;8527;49.740;6.604;2024-01-27T15:24:47;101629.00;;;4.68;86.41
16821;BME280;8527;49.740;6.604;2024-01-27T15:29:45;101639.13;;;4.42;89.23
16821;BME280;8527;49.740;6.604;2024-01-27T15:34:47;101630.34;;;4.43;91.40
16821;BME280;8527;49.740;6.604;2024-01-27T15:39:45;101616.47;;;4.23;94.26
16821;BME280;8527;49.740;6.604;2024-01-27T15:44:44;101618.94;;;4.26;95.08
16821;BME280;8527;49.740;6.604;2024-01-27T15:49:42;101611.50;;;4.01;97.09
16821;BME280;8527;49.740;6.604;2024-01-27T15:54:43;101613.88;;;4.05;97.59
16821;BME280;8527;49.740;6.604;2024-01-27T15:59:44;101617.75;;;3.98;97.79
16821;BME280;8527;49.740;6.604;2024-01-27T16:04:43;101611.97;;;3.91;98.49
16821;BME280;8527;49.740;6.604;2024-01-27T16:09:47;101612.75;;;3.76;98.71
16821;BME280;8527;49.740;6.604;2024-01-27T16:14:46;101610.25;;;3.73;98.81
16821;BME280;8527;49.740;6.604;2024-01-27T16:19:44;101610.81;;;3.62;98.86
16821;BME280;8527;49.740;6.604;2024-01-27T16:24:43;101612.66;;;3.42;99.53
16821;BME280;8527;49.740;6.604;2024-01-27T16:29:44;101614.66;;;3.37;99.08
16821;BME280;8527;49.740;6.604;2024-01-27T16:34:45;101611.97;;;3.38;98.99
16821;BME280;8527;49.740;6.604;2024-01-27T16:39:44;101609.22;;;3.22;99.28
16821;BME280;8527;49.740;6.604;2024-01-27T16:44:45;101613.47;;;3.25;99.14
16821;BME280;8527;49.740;6.604;2024-01-27T16:49:44;101619.38;;;3.11;99.65
16821;BME280;8527;49.740;6.604;2024-01-27T16:54:42;101619.81;;;3.02;98.51
16821;BME280;8527;49.740;6.604;2024-01-27T16:59:40;101613.59;;;2.85;99.51
16821;BME280;8527;49.740;6.604;2024-01-27T17:04:43;101613.53;;;2.87;98.63
16821;BME280;8527;49.740;6.604;2024-01-27T17:09:43;101616.38;;;2.82;98.67
16821;BME280;8527;49.740;6.604;2024-01-27T17:14:41;101613.66;;;2.64;99.43
16821;BME280;8527;49.740;6.604;2024-01-27T17:19:47;101609.28;;;2.65;98.08
16821;BME280;8527;49.740;6.604;2024-01-27T17:24:46;101608.91;;;2.53;98.40
16821;BME280;8527;49.740;6.604;2024-01-27T17:29:46;101616.50;;;2.41;99.00
16821;BME280;8527;49.740;6.604;2024-01-27T17:34:47;101607.78;;;2.40;99.97
16821;BME280;8527;49.740;6.604;2024-01-27T17:39:46;101605.75;;;2.26;100.00
16821;BME280;8527;49.740;6.604;2024-01-27T17:44:44;101611.63;;;2.12;100.00
16821;BME280;8527;49.740;6.604;2024-01-27T17:49:43;101608.22;;;2.10;100.00
16821;BME280;8527;49.740;6.604;2024-01-27T17:54:44;101616.66;;;2.17;100.00
16821;BME280;8527;49.740;6.604;2024-01-27T17:59:45;101609.25;;;2.06;99.09
16821;BME280;8527;49.740;6.604;2024-01-27T18:04:43;101604.16;;;1.82;100.00
16821;BME280;8527;49.740;6.604;2024-01-27T18:09:47;101603.25;;;1.83;100.00
16821;BME280;8527;49.740;6.604;2024-01-27T18:14:45;101600.56;;;1.85;100.00
16821;BME280;8527;49.740;6.604;2024-01-27T18:19:44;101598.69;;;1.88;100.00
16821;BME280;8527;49.740;6.604;2024-01-27T18:24:43;101595.47;;;1.81;100.00
16821;BME280;8527;49.740;6.604;2024-01-27T18:29:44;101596.00;;;1.69;100.00
16821;BME280;8527;49.740;6.604;2024-01-27T18:34:42;101611.47;;;1.53;100.00
16821;BME280;8527;49.740;6.604;2024-01-27T18:39:44;101611.25;;;1.59;100.00
16821;BME280;8527;49.740;6.604;2024-01-27T18:44:45;101607.63;;;1.62;99.47
16821;BME280;8527;49.740;6.604;2024-01-27T18:49:44;101617.44;;;1.57;100.00
16821;BME280;8527;49.740;6.604;2024-01-27T18:54:45;101612.94;;;1.38;100.00
16821;BME280;8527;49.740;6.604;2024-01-27T18:59:46;101613.91;;;1.58;100.00
16821;BME280;8527;49.740;6.604;2024-01-27T19:04:45;101612.94;;;1.60;100.00
16821;BME280;8527;49.740;6.604;2024-01-27T19:09:44;101619.28;;;1.54;100.00
16821;BME280;8527;49.740;6.604;2024-01-27T19:14:45;101619.31;;;1.53;100.00
16821;BME280;8527;49.740;6.604;2024-01-27T19:19:44;101617.78;;;1.26;100.00
16821;BME280;8527;49.740;6.604;2024-01-27T19:24:43;101609.38;;;1.40;100.00
16821;BME280;8527;49.740;6.604;2024-01-27T19:29:41;101603.22;;;1.42;100.00
16821;BME280;8527;49.740;6.604;2024-01-27T19:34:42;101605.00;;;1.41;100.00
16821;BME280;8527;49.740;6.604;2024-01-27T19:39:41;101615.66;;;1.36;100.00
16821;BME280;8527;49.740;6.604;2024-01-27T19:44:39;101614.13;;;1.31;100.00
16821;BME280;8527;49.740;6.604;2024-01-27T19:49:38;101613.34;;;1.29;100.00
16821;BME280;8527;49.740;6.604;2024-01-27T19:54:39;101607.63;;;1.41;100.00
16821;BME280;8527;49.740;6.604;2024-01-27T19:59:38;101604.78;;;1.25;100.00
16821;BME280;8527;49.740;6.604;2024-01-27T20:04:36;101604.22;;;1.17;100.00
16821;BME280;8527;49.740;6.604;2024-01-27T20:09:40;101603.75;;;1.07;100.00
16821;BME280;8527;49.740;6.604;2024-01-27T20:14:38;101603.75;;;1.07;100.00
16821;BME280;8527;49.740;6.604;2024-01-27T20:19:37;101599.28;;;1.09;100.00
16821;BME280;8527;49.740;6.604;2024-01-27T20:24:41;101587.31;;;1.03;100.00
16821;BME280;8527;49.740;6.604;2024-01-27T20:29:39;101583.91;;;1.01;100.00
16821;BME280;8527;49.740;6.604;2024-01-27T20:34:38;101585.75;;;0.99;100.00
16821;BME280;8527;49.740;6.604;2024-01-27T20:39:41;101583.06;;;1.01;100.00
16821;BME280;8527;49.740;6.604;2024-01-27T20:44:40;101597.25;;;0.95;100.00
16821;BME280;8527;49.740;6.604;2024-01-27T20:49:42;101582.03;;;0.82;100.00
16821;BME280;8527;49.740;6.604;2024-01-27T20:54:43;101581.53;;;0.73;100.00
16821;BME280;8527;49.740;6.604;2024-01-27T20:59:44;101574.69;;;0.70;100.00
16821;BME280;8527;49.740;6.604;2024-01-27T21:04:42;101578.28;;;0.66;100.00
16821;BME280;8527;49.740;6.604;2024-01-27T21:09:43;101588.34;;;0.77;100.00
16821;BME280;8527;49.740;6.604;2024-01-27T21:14:48;101580.13;;;0.64;100.00
16821;BME280;8527;49.740;6.604;2024-01-27T21:19:48;101583.78;;;0.60;100.00
16821;BME280;8527;49.740;6.604;2024-01-27T21:24:50;101581.25;;;0.56;100.00
16821;BME280;8527;49.740;6.604;2024-01-27T21:29:48;101575.69;;;0.66;100.00
16821;BME280;8527;49.740;6.604;2024-01-27T21:34:47;101574.16;;;0.60;100.00
16821;BME280;8527;49.740;6.604;2024-01-27T21:39:46;101563.25;;;0.49;100.00
16821;BME280;8527;49.740;6.604;2024-01-27T21:44:51;101554.97;;;0.37;100.00
16821;BME280;8527;49.740;6.604;2024-01-27T21:49:49;101548.88;;;0.38;100.00
16821;BME280;8527;49.740;6.604;2024-01-27T21:54:52;101540.59;;;0.27;100.00
16821;BME280;8527;49.740;6.604;2024-01-27T21:59:56;101542.22;;;0.30;100.00
16821;BME280;8527;49.740;6.604;2024-01-27T22:04:55;101533.84;;;0.21;100.00
16821;BME280;8527;49.740;6.604;2024-01-27T22:09:56;101531.31;;;0.18;100.00
16821;BME280;8527;49.740;6.604;2024-01-27T22:15:00;101531.44;;;0.15;100.00
16821;BME280;8527;49.740;6.604;2024-01-27T22:20:01;101529.91;;;0.09;100.00
16821;BME280;8527;49.740;6.604;2024-01-27T22:25:02;101528.53;;;-0.01;100.00
16821;BME280;8527;49.740;6.604;2024-01-27T22:30:08;101525.25;;;-0.06;100.00
16821;BME280;8527;49.740;6.604;2024-01-27T22:35:08;101516.75;;;-0.11;100.00
16821;BME280;8527;49.740;6.604;2024-01-27T22:40:10;101509.47;;;-0.03;100.00
16821;BME280;8527;49.740;6.604;2024-01-27T22:45:12;101520.28;;;-0.12;100.00
16821;BME280;8527;49.740;6.604;2024-01-27T22:50:11;101511.69;;;-0.16;100.00
16821;BME280;8527;49.740;6.604;2024-01-27T22:55:09;101509.66;;;-0.08;100.00
16821;BME280;8527;49.740;6.604;2024-01-27T23:00:09;101497.59;;;-0.10;100.00
16821;BME280;8527;49.740;6.604;2024-01-27T23:05:21;101483.00;;;-0.16;100.00
16821;BME280;8527;49.740;6.604;2024-01-27T23:10:19;101488.56;;;-0.25;100.00
16821;BME280;8527;49.740;6.604;2024-01-27T23:15:19;101484.34;;;-0.30;100.00
16821;BME280;8527;49.740;6.604;2024-01-27T23:20:17;101467.25;;;-0.38;100.00
16821;BME280;8527;49.740;6.604;2024-01-27T23:25:18;101468.88;;;-0.34;100.00
16821;BME280;8527;49.740;6.604;2024-01-27T23:30:17;101472.44;;;-0.37;100.00
16821;BME280;8527;49.740;6.604;2024-01-27T23:35:16;101464.66;;;-0.38;100.00
16821;BME280;8527;49.740;6.604;2024-01-27T23:40:14;101461.41;;;-0.45;100.00
16821;BME280;8527;49.740;6.604;2024-01-27T23:45:18;101468.66;;;-0.53;100.00
16821;BME280;8527;49.740;6.604;2024-01-27T23:50:20;101477.28;;;-0.51;100.00
16821;BME280;8527;49.740;6.604;2024-01-27T23:55:18;101477.31;;;-0.53;100.00
